sensor_id;sensor_type;location;lat;lon;timestamp;P1;durP1;ratioP1;P2;durP2;ratioP2
142;SDS011;23959;49.046;8.468;2022-07-29T00:02:13;9.87;;;8.27;;
142;SDS011;23959;49.046;8.468;2022-07-29T00:04:40;12.13;;;8.10;;
142;SDS011;23959;49.046;8.468;2022-07-29T00:07:06;8.30;;;7.17;;
142;SDS011;23959;49.046;8.468;2022-07-29T00:09:32;13.47;;;8.50;;
142;SDS011;23959;49.046;8.468;2022-07-29T00:12:00;10.83;;;8.17;;
142;SDS011;23959;49.046;8.468;2022-07-29T00:14:27;15.13;;;8.07;;
142;SDS011;23959;49.046;8.468;2022-07-29T00:16:53;11.37;;;8.63;;
142;SDS011;23959;49.046;8.468;2022-07-29T00:19:19;14.53;;;8.07;;
142;SDS011;23959;49.046;8.468;2022-07-29T00:21:45;11.83;;;8.37;;
142;SDS011;23959;49.046;8.468;2022-07-29T00:24:11;10.63;;;8.30;;
142;SDS011;23959;49.046;8.468;2022-07-29T00:26:38;12.57;;;8.57;;
142;SDS011;23959;49.046;8.468;2022-07-29T00:29:04;13.43;;;8.77;;
142;SDS011;23959;49.046;8.468;2022-07-29T00:31:30;11.00;;;8.10;;
142;SDS011;23959;49.046;8.468;2022-07-29T00:33:57;13.37;;;8.70;;
142;SDS011;23959;49.046;8.468;2022-07-29T00:36:23;10.10;;;8.33;;
142;SDS011;23959;49.046;8.468;2022-07-29T00:38:49;13.93;;;7.57;;
142;SDS011;23959;49.046;8.468;2022-07-29T00:41:16;11.83;;;8.10;;
142;SDS011;23959;49.046;8.468;2022-07-29T00:43:43;16.23;;;8.90;;
142;SDS011;23959;49.046;8.468;2022-07-29T00:46:10;9.30;;;7.27;;
142;SDS011;23959;49.046;8.468;2022-07-29T00:48:36;10.50;;;8.53;;
142;SDS011;23959;49.046;8.468;2022-07-29T00:51:03;10.30;;;8.33;;
142;SDS011;23959;49.046;8.468;2022-07-29T00:53:31;16.77;;;8.80;;
142;SDS011;23959;49.046;8.468;2022-07-29T00:55:58;13.00;;;8.40;;
142;SDS011;23959;49.046;8.468;2022-07-29T00:58:24;10.30;;;7.90;;
142;SDS011;23959;49.046;8.468;2022-07-29T01:00:52;11.03;;;8.13;;
142;SDS011;23959;49.046;8.468;2022-07-29T01:03:18;11.30;;;7.60;;
142;SDS011;23959;49.046;8.468;2022-07-29T01:05:45;12.50;;;7.43;;
142;SDS011;23959;49.046;8.468;2022-07-29T01:08:12;14.33;;;8.30;;
142;SDS011;23959;49.046;8.468;2022-07-29T01:10:40;11.47;;;8.10;;
142;SDS011;23959;49.046;8.468;2022-07-29T01:13:09;11.17;;;8.33;;
142;SDS011;23959;49.046;8.468;2022-07-29T01:18:39;11.23;;;8.90;;
142;SDS011;23959;49.046;8.468;2022-07-29T01:30:09;11.50;;;9.20;;
142;SDS011;23959;49.046;8.468;2022-07-29T01:32:36;13.90;;;8.90;;
142;SDS011;23959;49.046;8.468;2022-07-29T01:35:06;11.73;;;8.83;;
142;SDS011;23959;49.046;8.468;2022-07-29T01:40:27;12.43;;;8.80;;
142;SDS011;23959;49.046;8.468;2022-07-29T01:42:59;31.33;;;9.23;;
142;SDS011;23959;49.046;8.468;2022-07-29T01:45:37;11.27;;;8.53;;
142;SDS011;23959;49.046;8.468;2022-07-29T01:48:11;11.80;;;8.60;;
142;SDS011;23959;49.046;8.468;2022-07-29T01:50:45;10.67;;;8.23;;
142;SDS011;23959;49.046;8.468;2022-07-29T01:53:16;12.70;;;8.63;;
142;SDS011;23959;49.046;8.468;2022-07-29T01:55:53;12.00;;;8.70;;
142;SDS011;23959;49.046;8.468;2022-07-29T01:58:23;12.80;;;8.10;;
142;SDS011;23959;49.046;8.468;2022-07-29T02:00:51;13.10;;;8.77;;
142;SDS011;23959;49.046;8.468;2022-07-29T02:03:19;12.07;;;8.70;;
142;SDS011;23959;49.046;8.468;2022-07-29T02:05:46;13.57;;;9.03;;
142;SDS011;23959;49.046;8.468;2022-07-29T02:08:13;17.17;;;8.33;;
142;SDS011;23959;49.046;8.468;2022-07-29T02:10:42;17.20;;;9.30;;
142;SDS011;23959;49.046;8.468;2022-07-29T02:13:10;11.07;;;8.47;;
142;SDS011;23959;49.046;8.468;2022-07-29T02:15:38;12.40;;;8.83;;
142;SDS011;23959;49.046;8.468;2022-07-29T02:18:07;13.33;;;8.57;;
142;SDS011;23959;49.046;8.468;2022-07-29T02:20:38;13.53;;;9.20;;
142;SDS011;23959;49.046;8.468;2022-07-29T02:23:06;12.07;;;8.97;;
142;SDS011;23959;49.046;8.468;2022-07-29T02:25:35;13.90;;;9.37;;
142;SDS011;23959;49.046;8.468;2022-07-29T02:28:03;11.93;;;9.30;;
142;SDS011;23959;49.046;8.468;2022-07-29T02:30:32;20.27;;;10.40;;
142;SDS011;23959;49.046;8.468;2022-07-29T02:33:02;11.50;;;9.20;;
142;SDS011;23959;49.046;8.468;2022-07-29T02:35:29;22.70;;;10.07;;
142;SDS011;23959;49.046;8.468;2022-07-29T02:37:55;12.20;;;8.90;;
142;SDS011;23959;49.046;8.468;2022-07-29T02:40:41;18.63;;;9.87;;
142;SDS011;23959;49.046;8.468;2022-07-29T02:43:09;15.13;;;9.77;;
142;SDS011;23959;49.046;8.468;2022-07-29T02:45:36;14.43;;;10.00;;
142;SDS011;23959;49.046;8.468;2022-07-29T02:48:06;16.10;;;9.47;;
142;SDS011;23959;49.046;8.468;2022-07-29T02:50:38;11.90;;;9.23;;
142;SDS011;23959;49.046;8.468;2022-07-29T02:53:18;15.17;;;9.33;;
142;SDS011;23959;49.046;8.468;2022-07-29T02:55:56;14.30;;;10.23;;
142;SDS011;23959;49.046;8.468;2022-07-29T02:58:28;12.83;;;9.30;;
142;SDS011;23959;49.046;8.468;2022-07-29T03:01:01;18.03;;;9.50;;
142;SDS011;23959;49.046;8.468;2022-07-29T03:03:39;13.90;;;9.03;;
142;SDS011;23959;49.046;8.468;2022-07-29T03:06:07;13.03;;;9.73;;
142;SDS011;23959;49.046;8.468;2022-07-29T03:08:35;13.83;;;9.90;;
142;SDS011;23959;49.046;8.468;2022-07-29T03:11:01;11.70;;;9.50;;
142;SDS011;23959;49.046;8.468;2022-07-29T03:13:29;14.50;;;9.37;;
142;SDS011;23959;49.046;8.468;2022-07-29T03:15:56;17.50;;;9.73;;
142;SDS011;23959;49.046;8.468;2022-07-29T03:18:23;11.87;;;9.20;;
142;SDS011;23959;49.046;8.468;2022-07-29T03:20:51;16.07;;;9.63;;
142;SDS011;23959;49.046;8.468;2022-07-29T03:23:21;12.07;;;9.10;;
142;SDS011;23959;49.046;8.468;2022-07-29T03:25:49;13.77;;;10.20;;
142;SDS011;23959;49.046;8.468;2022-07-29T03:28:15;18.70;;;10.37;;
142;SDS011;23959;49.046;8.468;2022-07-29T03:30:41;14.87;;;10.40;;
142;SDS011;23959;49.046;8.468;2022-07-29T03:33:08;14.17;;;10.10;;
142;SDS011;23959;49.046;8.468;2022-07-29T03:35:34;17.57;;;10.23;;
142;SDS011;23959;49.046;8.468;2022-07-29T03:38:00;17.53;;;10.70;;
142;SDS011;23959;49.046;8.468;2022-07-29T03:41:00;15.57;;;10.37;;
142;SDS011;23959;49.046;8.468;2022-07-29T03:43:20;13.60;;;10.07;;
142;SDS011;23959;49.046;8.468;2022-07-29T03:45:49;13.70;;;10.50;;
142;SDS011;23959;49.046;8.468;2022-07-29T03:48:19;14.57;;;10.10;;
142;SDS011;23959;49.046;8.468;2022-07-29T03:50:47;14.03;;;10.50;;
142;SDS011;23959;49.046;8.468;2022-07-29T03:53:15;15.10;;;10.20;;
142;SDS011;23959;49.046;8.468;2022-07-29T03:55:46;13.67;;;10.50;;
142;SDS011;23959;49.046;8.468;2022-07-29T03:58:14;17.20;;;10.30;;
142;SDS011;23959;49.046;8.468;2022-07-29T04:00:43;14.00;;;10.40;;
142;SDS011;23959;49.046;8.468;2022-07-29T04:03:11;14.10;;;10.70;;
142;SDS011;23959;49.046;8.468;2022-07-29T04:05:38;16.00;;;11.10;;
142;SDS011;23959;49.046;8.468;2022-07-29T04:08:05;12.97;;;10.00;;
142;SDS011;23959;49.046;8.468;2022-07-29T04:10:31;16.80;;;10.73;;
142;SDS011;23959;49.046;8.468;2022-07-29T04:12:58;14.37;;;9.50;;
142;SDS011;23959;49.046;8.468;2022-07-29T04:15:24;16.40;;;10.70;;
142;SDS011;23959;49.046;8.468;2022-07-29T04:17:51;14.50;;;9.73;;
142;SDS011;23959;49.046;8.468;2022-07-29T04:20:17;18.43;;;11.57;;
142;SDS011;23959;49.046;8.468;2022-07-29T04:22:44;21.10;;;13.57;;
142;SDS011;23959;49.046;8.468;2022-07-29T04:25:10;19.13;;;11.70;;
142;SDS011;23959;49.046;8.468;2022-07-29T04:27:36;13.37;;;10.10;;
142;SDS011;23959;49.046;8.468;2022-07-29T04:30:22;14.80;;;9.90;;
142;SDS011;23959;49.046;8.468;2022-07-29T04:32:48;17.37;;;10.47;;
142;SDS011;23959;49.046;8.468;2022-07-29T04:35:15;16.93;;;10.80;;
142;SDS011;23959;49.046;8.468;2022-07-29T04:37:41;15.77;;;10.60;;
142;SDS011;23959;49.046;8.468;2022-07-29T04:40:07;15.37;;;10.30;;
142;SDS011;23959;49.046;8.468;2022-07-29T04:42:33;16.77;;;11.30;;
142;SDS011;23959;49.046;8.468;2022-07-29T04:44:59;16.93;;;10.47;;
142;SDS011;23959;49.046;8.468;2022-07-29T04:47:25;16.67;;;10.20;;
142;SDS011;23959;49.046;8.468;2022-07-29T04:49:52;13.83;;;10.00;;
142;SDS011;23959;49.046;8.468;2022-07-29T04:52:18;26.40;;;10.90;;
142;SDS011;23959;49.046;8.468;2022-07-29T04:54:44;18.03;;;10.70;;
142;SDS011;23959;49.046;8.468;2022-07-29T04:57:10;14.17;;;9.83;;
142;SDS011;23959;49.046;8.468;2022-07-29T04:59:37;14.93;;;9.80;;
142;SDS011;23959;49.046;8.468;2022-07-29T05:02:03;16.23;;;10.70;;
142;SDS011;23959;49.046;8.468;2022-07-29T05:04:29;16.90;;;10.63;;
142;SDS011;23959;49.046;8.468;2022-07-29T05:06:55;17.07;;;11.00;;
142;SDS011;23959;49.046;8.468;2022-07-29T05:09:21;17.03;;;10.90;;
142;SDS011;23959;49.046;8.468;2022-07-29T05:11:47;19.67;;;10.70;;
142;SDS011;23959;49.046;8.468;2022-07-29T05:14:13;19.30;;;11.47;;
142;SDS011;23959;49.046;8.468;2022-07-29T05:16:39;16.63;;;10.93;;
142;SDS011;23959;49.046;8.468;2022-07-29T05:19:06;14.20;;;9.43;;
142;SDS011;23959;49.046;8.468;2022-07-29T05:21:32;20.30;;;10.20;;
142;SDS011;23959;49.046;8.468;2022-07-29T05:23:58;17.63;;;10.40;;
142;SDS011;23959;49.046;8.468;2022-07-29T05:26:24;16.43;;;11.30;;
142;SDS011;23959;49.046;8.468;2022-07-29T05:28:50;20.63;;;10.83;;
142;SDS011;23959;49.046;8.468;2022-07-29T05:31:17;19.40;;;10.90;;
142;SDS011;23959;49.046;8.468;2022-07-29T05:33:43;18.83;;;11.40;;
142;SDS011;23959;49.046;8.468;2022-07-29T05:36:09;18.13;;;11.27;;
142;SDS011;23959;49.046;8.468;2022-07-29T05:38:36;15.03;;;10.10;;
142;SDS011;23959;49.046;8.468;2022-07-29T05:41:02;16.13;;;10.63;;
142;SDS011;23959;49.046;8.468;2022-07-29T05:43:31;22.33;;;11.40;;
142;SDS011;23959;49.046;8.468;2022-07-29T05:45:57;18.03;;;11.67;;
142;SDS011;23959;49.046;8.468;2022-07-29T05:48:24;20.13;;;11.10;;
142;SDS011;23959;49.046;8.468;2022-07-29T05:50:50;20.30;;;11.60;;
142;SDS011;23959;49.046;8.468;2022-07-29T05:53:17;18.73;;;11.40;;
142;SDS011;23959;49.046;8.468;2022-07-29T05:55:47;20.10;;;11.53;;
142;SDS011;23959;49.046;8.468;2022-07-29T05:58:14;21.10;;;11.87;;
142;SDS011;23959;49.046;8.468;2022-07-29T06:00:40;20.97;;;11.03;;
142;SDS011;23959;49.046;8.468;2022-07-29T06:03:07;16.13;;;12.20;;
142;SDS011;23959;49.046;8.468;2022-07-29T06:05:33;19.57;;;11.97;;
142;SDS011;23959;49.046;8.468;2022-07-29T06:07:59;18.83;;;11.40;;
142;SDS011;23959;49.046;8.468;2022-07-29T06:10:25;18.03;;;11.20;;
142;SDS011;23959;49.046;8.468;2022-07-29T06:12:52;17.73;;;11.60;;
142;SDS011;23959;49.046;8.468;2022-07-29T06:15:19;17.77;;;10.67;;
142;SDS011;23959;49.046;8.468;2022-07-29T06:17:45;15.17;;;11.40;;
142;SDS011;23959;49.046;8.468;2022-07-29T06:20:11;14.43;;;10.80;;
142;SDS011;23959;49.046;8.468;2022-07-29T06:22:37;24.30;;;11.90;;
142;SDS011;23959;49.046;8.468;2022-07-29T06:25:03;24.97;;;10.20;;
142;SDS011;23959;49.046;8.468;2022-07-29T06:27:31;19.73;;;10.23;;
142;SDS011;23959;49.046;8.468;2022-07-29T06:29:58;13.27;;;9.60;;
142;SDS011;23959;49.046;8.468;2022-07-29T06:32:24;20.70;;;10.53;;
142;SDS011;23959;49.046;8.468;2022-07-29T06:34:50;12.80;;;9.73;;
142;SDS011;23959;49.046;8.468;2022-07-29T06:37:16;14.73;;;10.43;;
142;SDS011;23959;49.046;8.468;2022-07-29T06:39:43;19.97;;;10.47;;
142;SDS011;23959;49.046;8.468;2022-07-29T06:42:09;15.23;;;10.03;;
142;SDS011;23959;49.046;8.468;2022-07-29T06:44:35;14.10;;;10.00;;
142;SDS011;23959;49.046;8.468;2022-07-29T06:47:02;21.30;;;9.67;;
142;SDS011;23959;49.046;8.468;2022-07-29T06:49:28;13.53;;;10.10;;
142;SDS011;23959;49.046;8.468;2022-07-29T06:51:54;19.47;;;10.73;;
142;SDS011;23959;49.046;8.468;2022-07-29T06:54:21;15.63;;;10.47;;
142;SDS011;23959;49.046;8.468;2022-07-29T06:56:47;15.50;;;9.63;;
142;SDS011;23959;49.046;8.468;2022-07-29T06:59:13;16.90;;;9.53;;
142;SDS011;23959;49.046;8.468;2022-07-29T07:01:40;18.20;;;10.93;;
142;SDS011;23959;49.046;8.468;2022-07-29T07:04:08;17.43;;;10.43;;
142;SDS011;23959;49.046;8.468;2022-07-29T07:06:34;17.57;;;9.47;;
142;SDS011;23959;49.046;8.468;2022-07-29T07:09:01;17.00;;;9.33;;
142;SDS011;23959;49.046;8.468;2022-07-29T07:11:27;20.40;;;10.23;;
142;SDS011;23959;49.046;8.468;2022-07-29T07:13:53;22.77;;;10.50;;
142;SDS011;23959;49.046;8.468;2022-07-29T07:16:20;14.00;;;9.47;;
142;SDS011;23959;49.046;8.468;2022-07-29T07:18:46;18.63;;;10.70;;
142;SDS011;23959;49.046;8.468;2022-07-29T07:21:12;15.80;;;11.00;;
142;SDS011;23959;49.046;8.468;2022-07-29T07:23:38;17.10;;;9.70;;
142;SDS011;23959;49.046;8.468;2022-07-29T07:26:05;20.23;;;10.00;;
142;SDS011;23959;49.046;8.468;2022-07-29T07:28:31;12.77;;;9.20;;
142;SDS011;23959;49.046;8.468;2022-07-29T07:30:57;12.20;;;9.30;;
142;SDS011;23959;49.046;8.468;2022-07-29T07:33:23;15.97;;;10.10;;
142;SDS011;23959;49.046;8.468;2022-07-29T07:35:50;14.50;;;9.60;;
142;SDS011;23959;49.046;8.468;2022-07-29T07:38:16;21.70;;;9.33;;
142;SDS011;23959;49.046;8.468;2022-07-29T07:40:42;18.93;;;9.20;;
142;SDS011;23959;49.046;8.468;2022-07-29T07:43:08;12.27;;;9.50;;
142;SDS011;23959;49.046;8.468;2022-07-29T07:45:34;12.33;;;9.20;;
142;SDS011;23959;49.046;8.468;2022-07-29T07:48:02;15.00;;;9.17;;
142;SDS011;23959;49.046;8.468;2022-07-29T07:50:29;13.00;;;9.03;;
142;SDS011;23959;49.046;8.468;2022-07-29T07:52:55;11.30;;;8.57;;
142;SDS011;23959;49.046;8.468;2022-07-29T07:55:25;14.10;;;8.33;;
142;SDS011;23959;49.046;8.468;2022-07-29T07:57:51;12.10;;;9.00;;
142;SDS011;23959;49.046;8.468;2022-07-29T08:00:18;12.73;;;8.60;;
142;SDS011;23959;49.046;8.468;2022-07-29T08:02:44;16.93;;;8.77;;
142;SDS011;23959;49.046;8.468;2022-07-29T08:05:10;9.73;;;8.60;;
142;SDS011;23959;49.046;8.468;2022-07-29T08:07:38;10.83;;;8.27;;
142;SDS011;23959;49.046;8.468;2022-07-29T08:10:05;12.53;;;8.10;;
142;SDS011;23959;49.046;8.468;2022-07-29T08:12:31;12.33;;;8.00;;
142;SDS011;23959;49.046;8.468;2022-07-29T08:14:57;12.97;;;8.23;;
142;SDS011;23959;49.046;8.468;2022-07-29T08:17:24;10.70;;;8.83;;
142;SDS011;23959;49.046;8.468;2022-07-29T08:19:50;12.87;;;8.40;;
142;SDS011;23959;49.046;8.468;2022-07-29T08:22:16;12.40;;;8.47;;
142;SDS011;23959;49.046;8.468;2022-07-29T08:24:42;9.80;;;7.97;;
142;SDS011;23959;49.046;8.468;2022-07-29T08:27:09;13.83;;;8.30;;
142;SDS011;23959;49.046;8.468;2022-07-29T08:29:36;13.23;;;8.37;;
142;SDS011;23959;49.046;8.468;2022-07-29T08:32:02;10.90;;;8.30;;
142;SDS011;23959;49.046;8.468;2022-07-29T08:34:29;11.70;;;8.57;;
142;SDS011;23959;49.046;8.468;2022-07-29T08:36:56;10.93;;;7.60;;
142;SDS011;23959;49.046;8.468;2022-07-29T08:39:25;11.07;;;8.03;;
142;SDS011;23959;49.046;8.468;2022-07-29T08:41:51;9.50;;;7.73;;
142;SDS011;23959;49.046;8.468;2022-07-29T08:44:18;17.83;;;7.53;;
142;SDS011;23959;49.046;8.468;2022-07-29T08:46:44;13.93;;;7.70;;
142;SDS011;23959;49.046;8.468;2022-07-29T08:49:11;12.03;;;7.07;;
142;SDS011;23959;49.046;8.468;2022-07-29T08:51:39;10.83;;;7.20;;
142;SDS011;23959;49.046;8.468;2022-07-29T08:54:06;12.30;;;6.83;;
142;SDS011;23959;49.046;8.468;2022-07-29T08:56:35;9.50;;;6.60;;
142;SDS011;23959;49.046;8.468;2022-07-29T08:59:04;9.33;;;6.47;;
142;SDS011;23959;49.046;8.468;2022-07-29T09:01:32;12.70;;;6.60;;
142;SDS011;23959;49.046;8.468;2022-07-29T09:04:00;12.30;;;6.60;;
142;SDS011;23959;49.046;8.468;2022-07-29T09:06:32;9.67;;;6.33;;
142;SDS011;23959;49.046;8.468;2022-07-29T09:09:02;11.10;;;7.23;;
142;SDS011;23959;49.046;8.468;2022-07-29T09:11:29;9.43;;;6.27;;
142;SDS011;23959;49.046;8.468;2022-07-29T09:13:57;11.30;;;6.20;;
142;SDS011;23959;49.046;8.468;2022-07-29T09:16:23;11.30;;;7.60;;
142;SDS011;23959;49.046;8.468;2022-07-29T09:18:49;10.37;;;6.73;;
142;SDS011;23959;49.046;8.468;2022-07-29T09:21:16;9.50;;;6.60;;
142;SDS011;23959;49.046;8.468;2022-07-29T09:24:09;10.73;;;6.70;;
142;SDS011;23959;49.046;8.468;2022-07-29T09:26:40;13.00;;;6.63;;
142;SDS011;23959;49.046;8.468;2022-07-29T09:29:11;17.23;;;6.97;;
142;SDS011;23959;49.046;8.468;2022-07-29T09:31:40;7.30;;;6.90;;
142;SDS011;23959;49.046;8.468;2022-07-29T09:34:08;10.63;;;6.03;;
142;SDS011;23959;49.046;8.468;2022-07-29T09:36:45;10.17;;;6.87;;
142;SDS011;23959;49.046;8.468;2022-07-29T09:39:14;7.40;;;6.27;;
142;SDS011;23959;49.046;8.468;2022-07-29T09:44:21;8.90;;;6.50;;
142;SDS011;23959;49.046;8.468;2022-07-29T09:49:31;7.80;;;6.37;;
142;SDS011;23959;49.046;8.468;2022-07-29T09:52:00;25.33;;;6.70;;
142;SDS011;23959;49.046;8.468;2022-07-29T09:54:26;7.50;;;6.93;;
142;SDS011;23959;49.046;8.468;2022-07-29T09:56:53;10.10;;;7.37;;
142;SDS011;23959;49.046;8.468;2022-07-29T09:59:20;8.93;;;6.50;;
142;SDS011;23959;49.046;8.468;2022-07-29T10:01:49;10.33;;;6.97;;
142;SDS011;23959;49.046;8.468;2022-07-29T10:04:16;11.03;;;6.97;;
142;SDS011;23959;49.046;8.468;2022-07-29T10:06:58;9.23;;;6.30;;
142;SDS011;23959;49.046;8.468;2022-07-29T10:09:26;77.77;;;8.47;;
142;SDS011;23959;49.046;8.468;2022-07-29T10:12:08;9.10;;;6.33;;
142;SDS011;23959;49.046;8.468;2022-07-29T10:14:42;10.00;;;6.80;;
142;SDS011;23959;49.046;8.468;2022-07-29T10:17:09;9.53;;;6.87;;
142;SDS011;23959;49.046;8.468;2022-07-29T10:19:36;8.53;;;6.90;;
142;SDS011;23959;49.046;8.468;2022-07-29T10:22:05;21.30;;;6.93;;
142;SDS011;23959;49.046;8.468;2022-07-29T10:24:34;8.93;;;6.27;;
142;SDS011;23959;49.046;8.468;2022-07-29T10:27:04;12.90;;;6.43;;
142;SDS011;23959;49.046;8.468;2022-07-29T10:29:32;10.83;;;7.20;;
142;SDS011;23959;49.046;8.468;2022-07-29T10:32:10;7.13;;;6.27;;
142;SDS011;23959;49.046;8.468;2022-07-29T10:35:12;9.43;;;6.37;;
142;SDS011;23959;49.046;8.468;2022-07-29T10:37:52;6.03;;;5.77;;
142;SDS011;23959;49.046;8.468;2022-07-29T10:40:34;7.97;;;6.30;;
142;SDS011;23959;49.046;8.468;2022-07-29T10:43:26;8.57;;;6.40;;
142;SDS011;23959;49.046;8.468;2022-07-29T10:45:55;10.67;;;7.00;;
142;SDS011;23959;49.046;8.468;2022-07-29T10:48:23;11.20;;;6.30;;
142;SDS011;23959;49.046;8.468;2022-07-29T10:50:59;10.27;;;5.83;;
142;SDS011;23959;49.046;8.468;2022-07-29T10:53:46;11.87;;;5.77;;
142;SDS011;23959;49.046;8.468;2022-07-29T10:56:24;9.00;;;6.50;;
142;SDS011;23959;49.046;8.468;2022-07-29T11:01:48;8.10;;;6.10;;
142;SDS011;23959;49.046;8.468;2022-07-29T11:07:10;8.27;;;6.57;;
142;SDS011;23959;49.046;8.468;2022-07-29T11:09:37;13.80;;;6.60;;
142;SDS011;23959;49.046;8.468;2022-07-29T11:12:23;8.33;;;6.20;;
142;SDS011;23959;49.046;8.468;2022-07-29T11:15:03;7.77;;;6.00;;
142;SDS011;23959;49.046;8.468;2022-07-29T11:20:38;10.23;;;6.77;;
142;SDS011;23959;49.046;8.468;2022-07-29T11:31:50;9.50;;;6.50;;
142;SDS011;23959;49.046;8.468;2022-07-29T11:39:40;8.03;;;6.40;;
142;SDS011;23959;49.046;8.468;2022-07-29T11:47:33;13.40;;;7.13;;
142;SDS011;23959;49.046;8.468;2022-07-29T11:50:28;7.37;;;6.33;;
142;SDS011;23959;49.046;8.468;2022-07-29T11:52:55;7.57;;;6.80;;
142;SDS011;23959;49.046;8.468;2022-07-29T11:55:23;12.03;;;6.40;;
142;SDS011;23959;49.046;8.468;2022-07-29T11:57:51;6.90;;;6.50;;
142;SDS011;23959;49.046;8.468;2022-07-29T12:02:49;9.90;;;6.73;;
142;SDS011;23959;49.046;8.468;2022-07-29T12:05:16;13.67;;;6.70;;
142;SDS011;23959;49.046;8.468;2022-07-29T12:07:42;10.07;;;6.60;;
142;SDS011;23959;49.046;8.468;2022-07-29T12:10:09;11.10;;;6.67;;
142;SDS011;23959;49.046;8.468;2022-07-29T12:12:35;18.90;;;7.30;;
142;SDS011;23959;49.046;8.468;2022-07-29T12:15:10;7.20;;;6.33;;
142;SDS011;23959;49.046;8.468;2022-07-29T12:17:42;13.03;;;7.50;;
142;SDS011;23959;49.046;8.468;2022-07-29T12:20:11;14.00;;;6.70;;
142;SDS011;23959;49.046;8.468;2022-07-29T12:22:39;15.67;;;7.90;;
142;SDS011;23959;49.046;8.468;2022-07-29T12:25:11;27.03;;;7.70;;
142;SDS011;23959;49.046;8.468;2022-07-29T12:27:41;11.93;;;7.33;;
142;SDS011;23959;49.046;8.468;2022-07-29T12:30:09;10.03;;;6.50;;
142;SDS011;23959;49.046;8.468;2022-07-29T12:32:41;8.27;;;6.47;;
142;SDS011;23959;49.046;8.468;2022-07-29T12:35:15;8.53;;;6.77;;
142;SDS011;23959;49.046;8.468;2022-07-29T12:37:45;19.50;;;6.80;;
142;SDS011;23959;49.046;8.468;2022-07-29T12:40:17;12.70;;;6.40;;
142;SDS011;23959;49.046;8.468;2022-07-29T12:45:31;8.03;;;5.90;;
142;SDS011;23959;49.046;8.468;2022-07-29T12:47:57;9.23;;;6.10;;
142;SDS011;23959;49.046;8.468;2022-07-29T12:50:23;8.47;;;6.23;;
142;SDS011;23959;49.046;8.468;2022-07-29T12:52:51;8.07;;;6.00;;
142;SDS011;23959;49.046;8.468;2022-07-29T12:58:05;6.50;;;5.77;;
142;SDS011;23959;49.046;8.468;2022-07-29T13:00:32;7.30;;;5.47;;
142;SDS011;23959;49.046;8.468;2022-07-29T13:02:59;10.33;;;5.13;;
142;SDS011;23959;49.046;8.468;2022-07-29T13:05:43;6.43;;;5.50;;
142;SDS011;23959;49.046;8.468;2022-07-29T13:08:11;8.53;;;5.50;;
142;SDS011;23959;49.046;8.468;2022-07-29T13:10:38;5.63;;;4.87;;
142;SDS011;23959;49.046;8.468;2022-07-29T13:13:13;10.07;;;5.00;;
142;SDS011;23959;49.046;8.468;2022-07-29T13:15:44;5.07;;;4.40;;
142;SDS011;23959;49.046;8.468;2022-07-29T13:18:31;5.13;;;4.63;;
142;SDS011;23959;49.046;8.468;2022-07-29T13:21:12;6.13;;;5.33;;
142;SDS011;23959;49.046;8.468;2022-07-29T13:23:42;7.33;;;4.77;;
142;SDS011;23959;49.046;8.468;2022-07-29T13:26:09;12.33;;;4.90;;
142;SDS011;23959;49.046;8.468;2022-07-29T13:28:41;5.40;;;5.03;;
142;SDS011;23959;49.046;8.468;2022-07-29T13:31:07;7.23;;;5.40;;
142;SDS011;23959;49.046;8.468;2022-07-29T13:33:33;5.17;;;4.63;;
142;SDS011;23959;49.046;8.468;2022-07-29T13:35:59;5.20;;;4.83;;
142;SDS011;23959;49.046;8.468;2022-07-29T13:38:25;6.40;;;4.60;;
142;SDS011;23959;49.046;8.468;2022-07-29T13:40:52;10.47;;;4.80;;
142;SDS011;23959;49.046;8.468;2022-07-29T13:43:21;6.73;;;4.97;;
142;SDS011;23959;49.046;8.468;2022-07-29T13:45:50;6.73;;;4.20;;
142;SDS011;23959;49.046;8.468;2022-07-29T13:48:16;10.17;;;5.17;;
142;SDS011;23959;49.046;8.468;2022-07-29T13:50:42;6.80;;;4.33;;
142;SDS011;23959;49.046;8.468;2022-07-29T13:53:08;20.13;;;4.50;;
142;SDS011;23959;49.046;8.468;2022-07-29T13:55:35;11.77;;;4.53;;
142;SDS011;23959;49.046;8.468;2022-07-29T13:58:01;9.73;;;4.73;;
142;SDS011;23959;49.046;8.468;2022-07-29T14:00:27;7.77;;;4.63;;
142;SDS011;23959;49.046;8.468;2022-07-29T14:02:54;5.80;;;4.30;;
142;SDS011;23959;49.046;8.468;2022-07-29T14:05:20;5.13;;;4.13;;
142;SDS011;23959;49.046;8.468;2022-07-29T14:07:46;9.07;;;4.50;;
142;SDS011;23959;49.046;8.468;2022-07-29T14:10:12;6.80;;;4.23;;
142;SDS011;23959;49.046;8.468;2022-07-29T14:12:38;5.90;;;4.10;;
142;SDS011;23959;49.046;8.468;2022-07-29T14:15:04;7.17;;;4.30;;
142;SDS011;23959;49.046;8.468;2022-07-29T14:17:31;7.70;;;4.13;;
142;SDS011;23959;49.046;8.468;2022-07-29T14:19:57;6.63;;;4.17;;
142;SDS011;23959;49.046;8.468;2022-07-29T14:22:23;10.80;;;4.20;;
142;SDS011;23959;49.046;8.468;2022-07-29T14:24:50;4.30;;;3.77;;
142;SDS011;23959;49.046;8.468;2022-07-29T14:27:16;10.17;;;4.23;;
142;SDS011;23959;49.046;8.468;2022-07-29T14:29:42;4.37;;;3.93;;
142;SDS011;23959;49.046;8.468;2022-07-29T14:32:09;5.77;;;4.13;;
142;SDS011;23959;49.046;8.468;2022-07-29T14:34:36;4.67;;;3.80;;
142;SDS011;23959;49.046;8.468;2022-07-29T14:37:03;4.20;;;3.97;;
142;SDS011;23959;49.046;8.468;2022-07-29T14:39:34;9.67;;;4.27;;
142;SDS011;23959;49.046;8.468;2022-07-29T14:42:01;6.47;;;4.17;;
142;SDS011;23959;49.046;8.468;2022-07-29T14:44:27;6.03;;;4.10;;
142;SDS011;23959;49.046;8.468;2022-07-29T14:46:59;5.83;;;4.30;;
142;SDS011;23959;49.046;8.468;2022-07-29T14:49:26;12.83;;;4.57;;
142;SDS011;23959;49.046;8.468;2022-07-29T14:51:52;7.43;;;4.00;;
142;SDS011;23959;49.046;8.468;2022-07-29T14:54:18;9.57;;;4.07;;
142;SDS011;23959;49.046;8.468;2022-07-29T14:56:48;5.87;;;3.73;;
142;SDS011;23959;49.046;8.468;2022-07-29T14:59:16;6.83;;;4.17;;
142;SDS011;23959;49.046;8.468;2022-07-29T15:01:42;6.73;;;4.10;;
142;SDS011;23959;49.046;8.468;2022-07-29T15:04:08;6.30;;;4.00;;
142;SDS011;23959;49.046;8.468;2022-07-29T15:06:35;13.07;;;3.73;;
142;SDS011;23959;49.046;8.468;2022-07-29T15:09:01;11.63;;;4.73;;
142;SDS011;23959;49.046;8.468;2022-07-29T15:11:28;5.57;;;4.03;;
142;SDS011;23959;49.046;8.468;2022-07-29T15:13:54;10.07;;;3.50;;
142;SDS011;23959;49.046;8.468;2022-07-29T15:16:20;6.73;;;4.20;;
142;SDS011;23959;49.046;8.468;2022-07-29T15:18:46;5.93;;;4.07;;
142;SDS011;23959;49.046;8.468;2022-07-29T15:21:12;5.30;;;4.10;;
142;SDS011;23959;49.046;8.468;2022-07-29T15:23:39;8.77;;;3.97;;
142;SDS011;23959;49.046;8.468;2022-07-29T15:26:05;10.10;;;3.90;;
142;SDS011;23959;49.046;8.468;2022-07-29T15:28:31;5.43;;;3.80;;
142;SDS011;23959;49.046;8.468;2022-07-29T15:30:57;4.40;;;3.37;;
142;SDS011;23959;49.046;8.468;2022-07-29T15:33:23;6.57;;;4.30;;
142;SDS011;23959;49.046;8.468;2022-07-29T15:35:53;6.07;;;3.90;;
142;SDS011;23959;49.046;8.468;2022-07-29T15:38:20;5.00;;;3.70;;
142;SDS011;23959;49.046;8.468;2022-07-29T15:40:47;7.40;;;3.80;;
142;SDS011;23959;49.046;8.468;2022-07-29T15:43:13;7.40;;;4.03;;
142;SDS011;23959;49.046;8.468;2022-07-29T15:45:40;3.90;;;3.67;;
142;SDS011;23959;49.046;8.468;2022-07-29T15:48:27;3.93;;;3.40;;
142;SDS011;23959;49.046;8.468;2022-07-29T15:50:53;4.90;;;3.30;;
142;SDS011;23959;49.046;8.468;2022-07-29T15:53:20;4.07;;;3.17;;
142;SDS011;23959;49.046;8.468;2022-07-29T15:55:46;6.23;;;3.50;;
142;SDS011;23959;49.046;8.468;2022-07-29T15:58:12;4.53;;;3.60;;
142;SDS011;23959;49.046;8.468;2022-07-29T16:00:38;7.13;;;3.77;;
142;SDS011;23959;49.046;8.468;2022-07-29T16:03:04;12.90;;;3.87;;
142;SDS011;23959;49.046;8.468;2022-07-29T16:05:30;5.20;;;3.90;;
142;SDS011;23959;49.046;8.468;2022-07-29T16:07:56;8.00;;;3.80;;